Time;durP1;ratioP1;P1;durP2;ratioP2;P2;SDS_P1;SDS_P2;PMS_P1;PMS_P2;Temp;Humidity;BMP_temperature;BMP_pressure;BME280_temperature;BME280_humidity;BME280_pressure;Samples;Min_cycle;Max_cycle;Signal;HPM_P1;HPM_P2
2022/01/17 00:02:17;;;;;;;0.73;0.73;;;3.60;99.90;;;;;;5262703;28;20035;-75
2022/01/17 00:04:55;;;;;;;0.77;0.77;;;3.70;99.90;;;;;;5253243;28;20051;-75
2022/01/17 00:07:30;;;;;;;0.63;0.63;;;3.80;99.90;;;;;;5269750;28;20047;-75
2022/01/17 00:10:06;;;;;;;0.50;0.50;;;3.90;99.90;;;;;;5260420;28;20032;-75
2022/01/17 00:12:44;;;;;;;0.70;0.70;;;4.00;99.90;;;;;;5262318;28;20039;-75
2022/01/17 00:15:48;;;;;;;1.35;1.27;;;3.90;99.90;;;;;;5260202;28;20051;-75
2022/01/17 00:20:46;;;;;;;0.65;0.65;;;3.90;99.90;;;;;;5261791;28;20039;-75
2022/01/17 00:23:23;;;;;;;1.00;1.00;;;4.10;99.90;;;;;;5260618;28;20603;-74
2022/01/17 00:25:56;;;;;;;0.70;0.70;;;4.10;99.90;;;;;;5256552;28;20466;-75
2022/01/17 00:28:28;;;;;;;1.30;1.30;;;4.10;99.90;;;;;;5259276;28;20024;-74
2022/01/17 00:31:04;;;;;;;1.42;1.38;;;4.10;99.90;;;;;;5260889;28;20285;-74
2022/01/17 00:33:38;;;;;;;1.05;0.75;;;4.10;99.90;;;;;;5260638;28;20108;-74
2022/01/17 00:36:15;;;;;;;0.60;0.60;;;4.10;99.90;;;;;;5260855;28;20028;-75
2022/01/17 00:38:46;;;;;;;0.70;0.70;;;4.10;99.90;;;;;;5274220;28;20075;-75
2022/01/17 00:41:27;;;;;;;0.60;0.60;;;4.10;99.90;;;;;;5260892;28;20095;-75
2022/01/17 00:44:00;;;;;;;0.80;0.80;;;4.10;99.90;;;;;;5260433;28;20040;-74
2022/01/17 00:46:38;;;;;;;0.70;0.70;;;4.10;99.90;;;;;;5269345;28;20051;-74
2022/01/17 00:49:15;;;;;;;0.52;0.52;;;4.00;99.90;;;;;;5280947;28;20024;-75
2022/01/17 00:51:52;;;;;;;0.90;0.90;;;4.00;99.90;;;;;;5261267;28;20031;-75
2022/01/17 00:54:31;;;;;;;0.70;0.70;;;3.90;99.90;;;;;;5246234;28;20067;-77
2022/01/17 00:57:05;;;;;;;0.55;0.55;;;3.80;99.90;;;;;;5259875;28;20103;-75
2022/01/17 00:59:35;;;;;;;0.75;0.75;;;3.90;99.90;;;;;;5262748;28;20024;-75
2022/01/17 01:02:11;;;;;;;0.77;0.77;;;3.90;99.90;;;;;;5259482;28;20076;-75
2022/01/17 01:04:49;;;;;;;0.60;0.60;;;3.90;99.90;;;;;;5254439;28;20597;-76
2022/01/17 01:07:20;;;;;;;1.00;1.00;;;3.90;99.90;;;;;;5243429;28;20032;-75
2022/01/17 01:10:12;;;;;;;0.90;0.90;;;3.90;99.90;;;;;;5242352;28;20047;-76
2022/01/17 01:12:46;;;;;;;0.90;0.90;;;3.90;99.90;;;;;;5258810;28;20040;-76
2022/01/17 01:15:34;;;;;;;1.10;1.10;;;4.00;99.90;;;;;;5260443;28;20036;-75
2022/01/17 01:18:36;;;;;;;1.48;1.48;;;4.00;99.90;;;;;;5270171;28;20560;-75
2022/01/17 01:21:44;;;;;;;0.85;0.85;;;4.10;99.90;;;;;;5247197;28;20096;-76
2022/01/17 01:29:47;;;;;;;1.30;1.30;;;4.30;99.90;;;;;;5240894;28;20095;-74
2022/01/17 01:32:35;;;;;;;0.80;0.80;;;4.30;99.90;;;;;;5259310;28;20378;-74
2022/01/17 01:35:10;;;;;;;0.77;0.77;;;4.30;99.90;;;;;;5261013;28;20031;-74
2022/01/17 01:37:48;;;;;;;0.75;0.75;;;4.40;99.90;;;;;;5260073;28;20087;-75
2022/01/17 01:40:24;;;;;;;0.88;0.88;;;4.30;99.90;;;;;;5242400;28;20092;-75
2022/01/17 01:42:55;;;;;;;0.80;0.80;;;4.30;99.90;;;;;;5259742;28;20032;-75
2022/01/17 01:45:28;;;;;;;0.70;0.70;;;4.20;99.90;;;;;;5237664;28;20557;-74
2022/01/17 01:48:02;;;;;;;1.20;1.17;;;4.20;99.90;;;;;;5255391;28;20035;-74
2022/01/17 01:50:36;;;;;;;1.48;1.48;;;4.10;99.90;;;;;;5258401;28;20031;-75
2022/01/17 01:53:15;;;;;;;0.80;0.80;;;4.10;99.90;;;;;;5259526;28;20035;-74
2022/01/17 01:55:52;;;;;;;0.70;0.70;;;4.00;99.90;;;;;;5274940;28;20054;-74
2022/01/17 01:58:25;;;;;;;0.88;0.88;;;3.90;99.90;;;;;;5256710;28;20506;-74
2022/01/17 02:00:56;;;;;;;0.98;0.98;;;3.80;99.90;;;;;;5259374;28;20043;-75
2022/01/17 02:03:29;;;;;;;0.70;0.70;;;3.80;99.90;;;;;;5271829;28;20040;-75
2022/01/17 02:06:03;;;;;;;0.70;0.70;;;4.00;99.90;;;;;;5261923;28;20337;-74
2022/01/17 02:08:39;;;;;;;1.05;1.05;;;3.90;99.90;;;;;;5229989;28;20039;-74
2022/01/17 02:11:15;;;;;;;1.58;1.58;;;3.80;99.90;;;;;;5258589;28;20032;-76
2022/01/17 02:13:53;;;;;;;2.65;2.55;;;3.80;99.90;;;;;;5257669;28;20023;-76
2022/01/17 02:16:29;;;;;;;0.70;0.70;;;3.80;99.90;;;;;;5242070;28;20088;-77
2022/01/17 02:18:59;;;;;;;1.52;1.52;;;3.80;99.90;;;;;;5242144;28;20229;-77
2022/01/17 02:21:45;;;;;;;0.77;0.77;;;3.70;99.90;;;;;;5258153;28;20054;-76
2022/01/17 02:24:23;;;;;;;0.90;0.90;;;3.70;99.90;;;;;;5260417;28;20036;-74
2022/01/17 02:26:54;;;;;;;1.70;1.63;;;3.60;99.90;;;;;;5229849;28;20046;-75
2022/01/17 02:29:26;;;;;;;0.80;0.80;;;3.50;99.90;;;;;;5271342;28;20483;-74
2022/01/17 02:31:59;;;;;;;1.13;1.13;;;3.50;99.90;;;;;;5258411;28;20032;-75
2022/01/17 02:34:30;;;;;;;0.70;0.70;;;3.50;99.90;;;;;;5258335;28;20102;-75
2022/01/17 02:37:07;;;;;;;0.68;0.68;;;3.60;99.90;;;;;;5259359;28;20321;-75
2022/01/17 02:39:40;;;;;;;0.75;0.75;;;3.60;99.90;;;;;;5234192;28;20044;-75
2022/01/17 02:42:15;;;;;;;0.50;0.50;;;3.50;99.90;;;;;;5254842;28;20121;-75
2022/01/17 02:44:55;;;;;;;0.50;0.50;;;3.40;99.90;;;;;;5242036;28;20064;-75
2022/01/17 02:47:26;;;;;;;0.68;0.68;;;3.40;99.90;;;;;;5260362;28;20031;-75
2022/01/17 02:50:01;;;;;;;0.40;0.40;;;3.30;99.90;;;;;;5258331;28;20040;-75
2022/01/17 02:52:36;;;;;;;0.70;0.70;;;3.30;99.90;;;;;;5253324;28;20047;-75
2022/01/17 02:55:11;;;;;;;0.90;0.80;;;3.30;99.90;;;;;;5253198;28;20059;-76
2022/01/17 02:57:45;;;;;;;1.00;1.00;;;3.40;99.90;;;;;;5255697;28;20035;-75
2022/01/17 03:00:15;;;;;;;0.65;0.65;;;3.50;99.90;;;;;;5258435;28;20054;-75
2022/01/17 03:02:49;;;;;;;0.40;0.40;;;3.40;99.90;;;;;;5245723;28;20209;-75
2022/01/17 03:05:21;;;;;;;1.25;1.25;;;3.40;99.90;;;;;;5254345;28;20697;-76
2022/01/17 03:07:52;;;;;;;0.93;0.93;;;3.30;99.90;;;;;;5269260;28;20032;-75
2022/01/17 03:13:27;;;;;;;0.95;0.95;;;3.60;99.90;;;;;;5263265;28;20028;-74
2022/01/17 03:16:07;;;;;;;0.50;0.50;;;3.60;99.90;;;;;;5237947;28;20048;-75
2022/01/17 03:18:45;;;;;;;0.75;0.75;;;3.60;99.90;;;;;;5244284;28;20078;-74
2022/01/17 03:21:18;;;;;;;0.70;0.70;;;3.70;99.90;;;;;;5260588;28;20099;-75
2022/01/17 03:23:53;;;;;;;1.00;1.00;;;3.70;99.90;;;;;;5260649;28;20028;-75
2022/01/17 03:26:30;;;;;;;0.80;0.80;;;3.60;99.90;;;;;;5258854;28;20032;-76
2022/01/17 03:29:03;;;;;;;0.57;0.57;;;3.50;99.90;;;;;;5261258;28;20031;-75
2022/01/17 03:31:38;;;;;;;0.95;0.95;;;3.40;99.90;;;;;;5263304;28;20032;-75
2022/01/17 03:34:09;;;;;;;1.20;1.20;;;3.50;99.90;;;;;;5263968;28;20024;-74
2022/01/17 03:36:40;;;;;;;0.90;0.85;;;3.60;99.90;;;;;;5264246;28;20576;-75
2022/01/17 03:39:17;;;;;;;0.50;0.50;;;3.60;99.90;;;;;;5265187;28;20046;-74
2022/01/17 03:41:48;;;;;;;0.85;0.85;;;3.70;99.90;;;;;;5250145;28;20047;-75
2022/01/17 03:44:19;;;;;;;0.57;0.57;;;3.80;99.90;;;;;;5261508;28;20023;-75
2022/01/17 03:46:55;;;;;;;1.02;1.00;;;3.90;99.90;;;;;;5266131;28;20066;-75
2022/01/17 03:49:26;;;;;;;1.00;1.00;;;3.70;99.90;;;;;;5255175;28;20034;-74
2022/01/17 03:51:58;;;;;;;0.60;0.60;;;3.70;99.90;;;;;;5244447;28;20567;-74
2022/01/17 03:54:31;;;;;;;0.50;0.50;;;3.90;99.90;;;;;;5262223;28;20043;-74
2022/01/17 03:57:05;;;;;;;0.60;0.60;;;4.10;99.90;;;;;;5262131;28;20027;-74
2022/01/17 03:59:38;;;;;;;0.95;0.95;;;4.20;99.90;;;;;;5266658;28;20039;-74
2022/01/17 04:02:10;;;;;;;0.60;0.60;;;4.20;99.90;;;;;;5271360;28;20036;-75
2022/01/17 04:04:41;;;;;;;0.60;0.60;;;4.20;99.90;;;;;;5253954;28;20051;-74
2022/01/17 04:07:16;;;;;;;0.50;0.50;;;4.30;99.90;;;;;;5272831;28;20051;-74
2022/01/17 04:09:52;;;;;;;0.93;0.93;;;4.20;99.90;;;;;;5260149;28;20649;-74
2022/01/17 04:12:25;;;;;;;0.70;0.70;;;4.10;99.90;;;;;;5260316;28;20062;-74
2022/01/17 04:15:04;;;;;;;0.60;0.60;;;4.10;99.90;;;;;;5259752;28;20095;-75
2022/01/17 04:17:41;;;;;;;0.60;0.60;;;4.10;99.90;;;;;;5267308;28;20024;-73
2022/01/17 04:20:26;;;;;;;0.50;0.50;;;4.10;99.90;;;;;;5255681;28;20051;-75
2022/01/17 04:23:02;;;;;;;0.80;0.80;;;4.30;99.90;;;;;;5245047;28;20404;-74
2022/01/17 04:25:36;;;;;;;0.40;0.40;;;4.40;99.90;;;;;;5260271;28;20279;-75
2022/01/17 04:28:15;;;;;;;1.17;1.17;;;4.50;99.90;;;;;;5262071;28;20032;-74
2022/01/17 04:30:48;;;;;;;0.95;0.95;;;4.40;99.90;;;;;;5261204;28;20050;-76
2022/01/17 04:33:23;;;;;;;0.90;0.90;;;4.30;99.90;;;;;;5261539;28;20099;-75
2022/01/17 04:35:55;;;;;;;0.60;0.60;;;4.40;99.90;;;;;;5245102;28;20052;-75
2022/01/17 04:38:26;;;;;;;0.82;0.82;;;4.40;99.90;;;;;;5274390;28;20048;-74
2022/01/17 04:41:03;;;;;;;0.70;0.70;;;4.30;99.90;;;;;;5261136;28;20196;-75
2022/01/17 04:46:11;;;;;;;0.60;0.60;;;4.50;99.90;;;;;;5262280;28;20253;-75
2022/01/17 04:48:43;;;;;;;0.60;0.60;;;4.50;99.90;;;;;;5258811;28;20059;-74
2022/01/17 04:51:22;;;;;;;1.20;1.20;;;4.50;99.90;;;;;;5260641;28;20032;-75
2022/01/17 04:54:19;;;;;;;1.45;1.35;;;4.50;99.90;;;;;;5258887;28;20091;-75
2022/01/17 04:56:48;;;;;;;;;;;4.50;99.90;;;;;;5259918;28;20048;-74
2022/01/17 04:59:19;;;;;;;0.45;0.45;;;4.40;99.90;;;;;;5261797;28;20411;-75
2022/01/17 05:01:56;;;;;;;0.70;0.70;;;4.30;99.90;;;;;;5254606;28;20032;-76
2022/01/17 05:04:27;;;;;;;0.70;0.70;;;4.30;99.90;;;;;;5250503;27;20027;-75
2022/01/17 05:07:01;;;;;;;0.70;0.70;;;4.50;99.90;;;;;;5267940;28;20454;-76
2022/01/17 05:09:32;;;;;;;;;;;4.50;99.90;;;;;;5240411;28;20336;-74
2022/01/17 05:12:04;;;;;;;0.63;0.63;;;4.50;99.90;;;;;;5240937;28;19920;-74
2022/01/17 05:14:43;;;;;;;0.50;0.50;;;4.60;99.90;;;;;;5256043;28;20040;-75
2022/01/17 05:20:13;;;;;;;0.80;0.80;;;4.60;99.90;;;;;;5260683;28;20110;-75
2022/01/17 05:22:43;;;;;;;0.73;0.73;;;4.60;99.90;;;;;;5238103;28;20036;-75
2022/01/17 05:25:17;;;;;;;1.00;1.00;;;4.50;99.90;;;;;;5270680;28;20062;-74
2022/01/17 05:27:52;;;;;;;1.13;1.08;;;4.50;99.90;;;;;;5242230;28;20461;-76
2022/01/17 05:30:25;;;;;;;0.55;0.55;;;4.50;99.90;;;;;;5255753;28;20111;-74
2022/01/17 05:32:59;;;;;;;1.83;1.67;;;4.50;99.90;;;;;;5234323;28;20517;-74
2022/01/17 05:35:30;;;;;;;0.73;0.73;;;4.60;99.90;;;;;;5241433;28;20044;-75
2022/01/17 05:38:04;;;;;;;1.20;1.20;;;4.60;99.90;;;;;;5259940;28;20312;-74
2022/01/17 05:40:35;;;;;;;1.35;1.25;;;4.70;99.90;;;;;;5259965;28;20091;-74
2022/01/17 05:43:12;;;;;;;0.68;0.68;;;4.70;99.90;;;;;;5257447;28;20032;-74
2022/01/17 05:45:48;;;;;;;1.13;1.13;;;4.70;99.90;;;;;;5257360;28;20035;-75
2022/01/17 05:48:27;;;;;;;1.45;1.45;;;4.80;99.90;;;;;;5259894;28;20028;-75
2022/01/17 05:51:00;;;;;;;0.70;0.70;;;4.80;99.90;;;;;;5259603;28;20036;-74
2022/01/17 05:53:31;;;;;;;1.10;1.10;;;4.80;99.90;;;;;;5259329;28;20040;-74
2022/01/17 05:56:05;;;;;;;0.63;0.63;;;4.80;99.90;;;;;;5259800;28;20036;-75
2022/01/17 05:58:40;;;;;;;1.10;1.10;;;4.80;99.90;;;;;;5259066;28;20039;-74
2022/01/17 06:01:16;;;;;;;0.80;0.80;;;4.70;99.90;;;;;;5264524;28;20317;-75
2022/01/17 06:03:49;;;;;;;1.30;1.30;;;4.70;99.90;;;;;;5275156;28;20522;-75
2022/01/17 06:06:23;;;;;;;1.05;1.05;;;4.70;99.90;;;;;;5250590;28;20043;-75
2022/01/17 06:08:56;;;;;;;0.95;0.95;;;4.70;99.90;;;;;;5261885;28;20110;-75
2022/01/17 06:11:27;;;;;;;0.82;0.82;;;4.70;99.90;;;;;;5260760;28;20357;-75
2022/01/17 06:14:02;;;;;;;2.17;1.98;;;4.70;99.90;;;;;;5240271;28;20093;-75
2022/01/17 06:16:33;;;;;;;0.70;0.70;;;4.70;99.90;;;;;;5255397;28;20100;-75
2022/01/17 06:19:09;;;;;;;0.82;0.82;;;4.60;99.90;;;;;;5257069;28;20016;-76
2022/01/17 06:21:40;;;;;;;0.80;0.80;;;4.60;99.90;;;;;;5237755;28;20032;-76
2022/01/17 06:24:17;;;;;;;0.80;0.80;;;4.60;99.90;;;;;;5258775;28;20032;-76
2022/01/17 06:26:51;;;;;;;1.27;1.27;;;4.60;99.90;;;;;;5284664;28;20057;-78
2022/01/17 06:29:22;;;;;;;0.50;0.50;;;4.70;99.90;;;;;;5244940;28;20036;-74
2022/01/17 06:31:53;;;;;;;0.60;0.60;;;4.70;99.90;;;;;;5280353;28;20062;-77
2022/01/17 06:34:29;;;;;;;1.30;1.30;;;4.70;99.90;;;;;;5244726;28;20074;-76
2022/01/17 06:37:01;;;;;;;0.60;0.60;;;4.70;99.90;;;;;;5279201;28;20442;-75
2022/01/17 06:39:34;;;;;;;0.75;0.75;;;4.70;99.90;;;;;;5243069;28;20245;-75
2022/01/17 06:42:07;;;;;;;0.60;0.60;;;4.70;99.90;;;;;;5261294;28;20028;-75
2022/01/17 06:44:46;;;;;;;0.90;0.90;;;4.80;99.90;;;;;;5263080;28;20392;-75
2022/01/17 06:47:20;;;;;;;1.35;1.35;;;4.80;99.90;;;;;;5259871;28;20103;-75
2022/01/17 06:49:53;;;;;;;1.05;1.05;;;4.80;99.90;;;;;;5262859;28;20036;-76
2022/01/17 06:52:30;;;;;;;0.80;0.80;;;4.90;99.90;;;;;;5262289;28;20036;-76
2022/01/17 06:55:08;;;;;;;0.73;0.73;;;4.90;99.90;;;;;;5246115;28;20209;-75
2022/01/17 06:57:39;;;;;;;1.02;1.02;;;4.90;99.90;;;;;;5262036;28;20257;-76
2022/01/17 07:00:17;;;;;;;0.60;0.60;;;4.90;99.90;;;;;;5250594;28;20040;-76
2022/01/17 07:02:51;;;;;;;0.52;0.52;;;5.00;99.90;;;;;;5263902;28;20063;-76
2022/01/17 07:05:25;;;;;;;0.70;0.70;;;5.00;99.90;;;;;;5238176;28;20648;-76
2022/01/17 07:07:56;;;;;;;1.13;1.13;;;5.00;99.90;;;;;;5262382;28;20095;-76
2022/01/17 07:10:28;;;;;;;0.70;0.70;;;5.00;99.90;;;;;;5259280;28;20051;-75
2022/01/17 07:12:59;;;;;;;0.60;0.60;;;5.00;99.90;;;;;;5262091;28;20138;-75
2022/01/17 07:15:32;;;;;;;0.70;0.70;;;5.00;99.90;;;;;;5261234;28;20046;-74
2022/01/17 07:18:06;;;;;;;0.60;0.60;;;5.00;99.90;;;;;;5271757;28;20024;-75
2022/01/17 07:20:39;;;;;;;0.68;0.68;;;5.00;99.90;;;;;;5227396;28;20031;-75
2022/01/17 07:23:13;;;;;;;0.60;0.60;;;5.00;99.90;;;;;;5263372;28;20028;-75
2022/01/17 07:25:50;;;;;;;1.00;1.00;;;4.90;99.90;;;;;;5244047;28;20040;-75
2022/01/17 07:28:21;;;;;;;0.75;0.75;;;5.00;99.90;;;;;;5277960;28;20831;-75
2022/01/17 07:31:00;;;;;;;0.73;0.73;;;4.90;99.90;;;;;;5262271;28;20618;-75
2022/01/17 07:33:37;;;;;;;1.20;1.20;;;4.90;99.90;;;;;;5260488;28;20040;-75
2022/01/17 07:36:11;;;;;;;0.70;0.70;;;4.90;99.90;;;;;;5254699;28;20095;-74
2022/01/17 07:38:45;;;;;;;0.50;0.50;;;4.90;99.90;;;;;;5277446;28;20023;-74
2022/01/17 07:41:19;;;;;;;0.60;0.60;;;4.90;99.90;;;;;;5243398;28;20392;-75
2022/01/17 07:43:51;;;;;;;1.23;1.17;;;5.00;99.90;;;;;;5261551;28;20028;-76
2022/01/17 07:46:48;;;;;;;1.27;1.27;;;4.90;99.90;;;;;;5257515;28;20545;-76
2022/01/17 07:49:21;;;;;;;1.00;1.00;;;4.90;99.90;;;;;;5243219;28;20056;-75
2022/01/17 07:52:00;;;;;;;0.90;0.90;;;5.00;99.90;;;;;;5275880;28;20052;-74
2022/01/17 07:54:43;;;;;;;0.70;0.70;;;4.90;99.90;;;;;;5258783;28;20046;-77
2022/01/17 07:57:14;;;;;;;0.88;0.88;;;4.90;99.90;;;;;;5262802;28;20020;-75
2022/01/17 07:59:52;;;;;;;0.60;0.60;;;4.90;99.90;;;;;;5261214;28;20032;-76
2022/01/17 08:02:24;;;;;;;1.20;1.20;;;4.90;99.90;;;;;;5259066;28;20055;-75
2022/01/17 08:04:55;;;;;;;0.93;0.93;;;4.90;99.90;;;;;;5258151;28;20047;-74
2022/01/17 08:07:31;;;;;;;0.70;0.70;;;5.00;99.90;;;;;;5263454;28;20038;-75
2022/01/17 08:10:12;;;;;;;0.68;0.68;;;5.00;99.90;;;;;;5275751;28;20051;-74
2022/01/17 08:12:46;;;;;;;1.15;1.15;;;5.10;99.90;;;;;;5282609;28;20059;-74
2022/01/17 08:15:22;;;;;;;0.95;0.85;;;5.10;99.90;;;;;;5264798;28;20036;-75
2022/01/17 08:17:55;;;;;;;0.60;0.60;;;5.20;99.90;;;;;;5281492;28;20081;-76
2022/01/17 08:20:30;;;;;;;0.70;0.70;;;5.30;99.90;;;;;;5264482;28;20486;-75
2022/01/17 08:23:07;;;;;;;0.73;0.73;;;5.30;99.90;;;;;;5281883;28;20095;-75
2022/01/17 08:25:40;;;;;;;0.80;0.80;;;5.30;99.90;;;;;;5282644;28;20091;-75
2022/01/17 08:28:14;;;;;;;1.25;1.25;;;5.40;99.90;;;;;;5263890;28;20077;-75
2022/01/17 08:30:47;;;;;;;0.57;0.57;;;5.40;99.90;;;;;;5263271;28;20040;-76
2022/01/17 08:33:18;;;;;;;1.25;1.25;;;5.40;99.90;;;;;;5263663;28;20545;-74
2022/01/17 08:35:52;;;;;;;0.70;0.70;;;5.50;99.90;;;;;;5246549;28;20332;-74
2022/01/17 08:38:24;;;;;;;0.80;0.80;;;5.50;99.90;;;;;;5261544;28;20019;-74
2022/01/17 08:40:58;;;;;;;1.20;1.20;;;5.50;99.90;;;;;;5278229;28;20140;-74
2022/01/17 08:43:29;;;;;;;0.60;0.60;;;5.60;99.90;;;;;;5282015;28;20125;-74
2022/01/17 08:46:03;;;;;;;0.50;0.50;;;5.60;99.90;;;;;;5263220;28;20512;-74
2022/01/17 08:48:34;;;;;;;1.20;1.20;;;5.60;99.90;;;;;;5247387;28;20094;-74
2022/01/17 08:51:05;;;;;;;2.53;2.42;;;5.70;99.90;;;;;;5264555;28;20664;-74
2022/01/17 08:53:36;;;;;;;0.95;0.95;;;5.80;99.90;;;;;;5283904;28;20111;-74
2022/01/17 08:56:12;;;;;;;0.60;0.60;;;5.70;99.90;;;;;;5264261;28;20442;-74
2022/01/17 08:58:43;;;;;;;0.70;0.70;;;5.80;99.90;;;;;;5264663;28;20023;-74
2022/01/17 09:01:14;;;;;;;0.85;0.85;;;5.70;99.90;;;;;;5281608;27;20074;-74
2022/01/17 09:03:52;;;;;;;0.90;0.90;;;5.80;99.90;;;;;;5246741;28;20136;-74
2022/01/17 09:06:24;;;;;;;0.80;0.80;;;5.70;99.90;;;;;;5251312;28;20450;-74
2022/01/17 09:08:57;;;;;;;1.00;1.00;;;5.70;99.90;;;;;;5223168;28;20054;-74
2022/01/17 09:11:29;;;;;;;0.60;0.60;;;5.70;99.90;;;;;;5237615;28;20024;-74
2022/01/17 09:14:03;;;;;;;0.80;0.80;;;5.70;99.90;;;;;;5273587;28;20036;-74
2022/01/17 09:16:36;;;;;;;0.70;0.70;;;5.70;99.90;;;;;;5268144;28;20034;-75
2022/01/17 09:19:08;;;;;;;0.88;0.88;;;5.70;99.90;;;;;;5260321;28;20035;-75
2022/01/17 09:21:43;;;;;;;1.30;1.30;;;5.70;99.90;;;;;;5241176;28;20029;-75
2022/01/17 09:24:14;;;;;;;0.70;0.70;;;5.70;99.90;;;;;;5270827;28;20095;-75
2022/01/17 09:26:46;;;;;;;0.80;0.80;;;5.60;99.90;;;;;;5259471;28;20393;-75
2022/01/17 09:29:17;;;;;;;0.98;0.98;;;5.70;99.90;;;;;;5259867;28;20070;-75
2022/01/17 09:31:48;;;;;;;0.70;0.70;;;5.70;99.90;;;;;;5260829;28;20024;-75
2022/01/17 09:34:21;;;;;;;0.90;0.90;;;5.70;99.90;;;;;;5259967;28;20517;-75
2022/01/17 09:36:53;;;;;;;0.63;0.63;;;5.70;99.90;;;;;;5249534;28;20062;-75
2022/01/17 09:39:27;;;;;;;0.60;0.60;;;5.80;99.90;;;;;;5243018;28;20122;-75
2022/01/17 09:42:00;;;;;;;1.08;1.08;;;5.70;99.90;;;;;;5241052;28;20085;-75
2022/01/17 09:44:34;;;;;;;0.77;0.77;;;5.80;99.90;;;;;;5260928;28;20042;-74
2022/01/17 09:47:14;;;;;;;0.90;0.90;;;5.90;99.90;;;;;;5257003;28;21148;-76
2022/01/17 09:49:55;;;;;;;0.73;0.73;;;6.00;99.90;;;;;;5267127;28;20047;-74
2022/01/17 09:52:34;;;;;;;0.60;0.60;;;6.20;99.90;;;;;;5271427;28;20549;-75
2022/01/17 09:55:11;;;;;;;0.80;0.80;;;6.30;99.90;;;;;;5258845;28;20024;-74
2022/01/17 09:57:56;;;;;;;1.17;1.17;;;6.50;99.90;;;;;;5259901;28;20032;-74
2022/01/17 10:00:35;;;;;;;0.90;0.90;;;6.60;99.90;;;;;;5247134;28;20099;-74
2022/01/17 10:03:16;;;;;;;0.73;0.73;;;6.50;99.90;;;;;;5253107;28;20043;-74
2022/01/17 10:05:50;;;;;;;0.77;0.77;;;6.60;99.90;;;;;;5260901;28;20513;-74
2022/01/17 10:08:21;;;;;;;7.53;1.10;;;6.50;99.90;;;;;;5258966;28;20024;-74
2022/01/17 10:10:58;;;;;;;0.95;0.95;;;6.40;99.90;;;;;;5257034;28;20020;-75
2022/01/17 10:13:37;;;;;;;0.70;0.70;;;6.40;99.90;;;;;;5258737;28;20442;-74
2022/01/17 10:16:20;;;;;;;1.42;1.33;;;6.40;99.90;;;;;;5258379;28;20064;-75
2022/01/17 10:19:03;;;;;;;1.20;1.20;;;6.30;99.90;;;;;;5258861;28;20607;-74
2022/01/17 10:21:43;;;;;;;1.25;1.25;;;6.30;99.90;;;;;;5275049;28;20028;-74
2022/01/17 10:35:36;;;;;;;0.70;0.70;;;6.50;99.90;;;;;;5263595;28;20028;-74
2022/01/17 10:38:19;;;;;;;0.63;0.63;;;6.30;99.90;;;;;;5227285;28;20444;-75
2022/01/17 10:41:02;;;;;;;0.73;0.73;;;6.20;99.90;;;;;;5275909;28;20036;-74
2022/01/17 10:43:43;;;;;;;1.90;1.80;;;6.10;99.90;;;;;;5273319;28;20039;-74
2022/01/17 10:46:24;;;;;;;0.70;0.70;;;6.20;99.90;;;;;;5255093;28;20056;-74
2022/01/17 10:48:56;;;;;;;0.60;0.60;;;6.10;99.90;;;;;;5220715;28;20474;-74
2022/01/17 10:51:34;;;;;;;0.60;0.60;;;6.10;99.90;;;;;;5220283;28;20106;-76
2022/01/17 10:54:18;;;;;;;1.92;1.83;;;6.20;99.90;;;;;;5223666;28;20096;-75
2022/01/17 10:57:00;;;;;;;0.85;0.85;;;6.20;99.90;;;;;;5237897;28;20101;-74
2022/01/17 10:59:34;;;;;;;0.70;0.70;;;6.30;99.90;;;;;;5204584;28;20510;-74
2022/01/17 11:02:10;;;;;;;0.70;0.70;;;6.30;99.90;;;;;;5235586;28;20060;-75
2022/01/17 11:04:51;;;;;;;0.68;0.68;;;6.30;99.90;;;;;;5230068;28;20307;-74
2022/01/17 11:07:30;;;;;;;0.90;0.90;;;6.30;99.90;;;;;;5237847;28;20024;-75
2022/01/17 11:10:13;;;;;;;0.50;0.50;;;6.30;99.90;;;;;;5238997;28;20021;-74
2022/01/17 11:12:45;;;;;;;1.90;1.80;;;6.40;99.90;;;;;;5221987;28;20029;-74
2022/01/17 11:15:22;;;;;;;0.60;0.60;;;6.30;99.90;;;;;;5236956;28;20087;-76
2022/01/17 11:17:57;;;;;;;1.05;1.05;;;6.30;99.90;;;;;;5221554;28;20232;-74
2022/01/17 11:20:34;;;;;;;0.40;0.40;;;6.20;99.90;;;;;;5206722;28;20075;-74
2022/01/17 11:23:08;;;;;;;0.52;0.52;;;6.20;99.90;;;;;;5239881;28;20040;-74
2022/01/17 11:25:51;;;;;;;0.73;0.73;;;6.30;99.90;;;;;;5222633;28;20056;-75
2022/01/17 11:28:30;;;;;;;0.65;0.65;;;6.40;99.90;;;;;;5240857;28;20213;-74
2022/01/17 11:31:07;;;;;;;1.08;1.08;;;6.30;99.90;;;;;;5223287;28;20036;-74
2022/01/17 11:33:39;;;;;;;0.47;0.47;;;6.30;99.90;;;;;;5219456;28;20052;-74
2022/01/17 11:36:13;;;;;;;0.52;0.52;;;6.30;99.90;;;;;;5207043;28;20460;-74
2022/01/17 11:38:54;;;;;;;0.70;0.70;;;6.40;99.90;;;;;;5241860;28;20048;-73
2022/01/17 11:41:35;;;;;;;0.90;0.90;;;6.40;99.90;;;;;;5239488;28;20284;-75
2022/01/17 11:44:10;;;;;;;0.80;0.80;;;6.30;99.90;;;;;;5223852;28;20539;-74
2022/01/17 11:46:52;;;;;;;0.60;0.60;;;6.30;99.90;;;;;;5233631;28;20417;-74
2022/01/17 11:49:35;;;;;;;1.00;1.00;;;6.40;99.90;;;;;;5228392;28;20438;-74
2022/01/17 11:52:11;;;;;;;0.60;0.60;;;6.30;99.90;;;;;;5265087;28;20031;-74
2022/01/17 11:54:47;;;;;;;0.70;0.70;;;6.30;99.90;;;;;;5253540;28;20481;-73
2022/01/17 11:57:27;;;;;;;0.57;0.57;;;6.30;99.90;;;;;;5260814;28;20028;-74
2022/01/17 12:00:11;;;;;;;0.50;0.50;;;6.30;99.90;;;;;;5263366;28;20030;-74
2022/01/17 12:02:42;;;;;;;0.63;0.63;;;6.30;99.90;;;;;;5260813;28;20044;-74
2022/01/17 12:05:16;;;;;;;0.50;0.50;;;6.40;99.90;;;;;;5235657;28;20063;-75
2022/01/17 12:07:55;;;;;;;0.52;0.52;;;6.40;99.90;;;;;;5248901;28;20108;-73
2022/01/17 12:10:36;;;;;;;0.57;0.57;;;6.30;99.90;;;;;;5250235;28;20028;-75
2022/01/17 12:13:21;;;;;;;0.98;0.98;;;6.30;99.90;;;;;;5247166;28;20027;-74
2022/01/17 12:15:58;;;;;;;3.10;2.88;;;6.20;99.90;;;;;;5229087;28;20036;-75
2022/01/17 12:18:37;;;;;;;0.70;0.70;;;6.20;99.90;;;;;;5243746;28;20600;-74
2022/01/17 12:21:32;;;;;;;0.65;0.65;;;6.30;99.90;;;;;;5246849;28;20026;-74
2022/01/17 12:24:15;;;;;;;0.60;0.60;;;6.30;99.90;;;;;;5243555;28;20077;-75
2022/01/17 12:27:01;;;;;;;1.00;1.00;;;6.30;99.90;;;;;;5255617;28;20047;-75
2022/01/17 12:29:50;;;;;;;0.43;0.43;;;6.30;99.90;;;;;;5261827;28;20619;-77
2022/01/17 12:32:24;;;;;;;1.77;1.67;;;6.30;99.90;;;;;;5260597;28;20032;-74
2022/01/17 12:35:09;;;;;;;0.93;0.93;;;6.30;99.90;;;;;;5251789;28;20137;-74
2022/01/17 12:37:53;;;;;;;1.08;1.08;;;6.20;99.90;;;;;;5225909;28;20471;-76
2022/01/17 12:40:39;;;;;;;0.73;0.73;;;6.20;99.90;;;;;;5230314;28;20046;-76
2022/01/17 12:43:15;;;;;;;1.05;1.05;;;6.30;99.90;;;;;;5243224;28;20424;-75
2022/01/17 12:45:59;;;;;;;0.63;0.63;;;6.20;99.90;;;;;;5244579;28;20055;-75
2022/01/17 12:48:35;;;;;;;0.50;0.50;;;6.20;99.90;;;;;;5220892;28;20098;-74
2022/01/17 12:51:11;;;;;;;0.55;0.55;;;6.20;99.90;;;;;;5221004;28;20033;-76
2022/01/17 12:53:53;;;;;;;0.40;0.40;;;6.10;99.90;;;;;;5204092;28;20099;-74
2022/01/17 12:56:29;;;;;;;0.80;0.80;;;6.10;99.90;;;;;;5204850;28;20044;-74
2022/01/17 12:59:02;;;;;;;0.43;0.43;;;6.10;99.90;;;;;;5238789;28;20039;-74
2022/01/17 13:01:34;;;;;;;0.50;0.50;;;6.10;99.90;;;;;;5239195;28;20048;-74
2022/01/17 13:04:17;;;;;;;0.68;0.68;;;6.10;99.90;;;;;;5217239;28;20029;-75
2022/01/17 13:06:53;;;;;;;0.95;0.95;;;6.10;99.90;;;;;;5240860;28;20032;-75
2022/01/17 13:09:29;;;;;;;0.60;0.60;;;6.10;99.90;;;;;;5221103;28;20107;-75
2022/01/17 13:12:05;;;;;;;0.70;0.70;;;6.10;99.90;;;;;;5240248;28;20337;-75
2022/01/17 13:14:36;;;;;;;0.98;0.98;;;6.20;99.90;;;;;;5221123;28;20036;-74
2022/01/17 13:17:12;;;;;;;1.08;1.08;;;6.20;99.90;;;;;;5205281;28;20095;-74
2022/01/17 13:19:45;;;;;;;0.60;0.60;;;6.20;99.90;;;;;;5221401;28;20032;-74
2022/01/17 13:22:18;;;;;;;0.50;0.50;;;6.10;99.90;;;;;;5204298;28;20037;-75
2022/01/17 13:25:02;;;;;;;0.80;0.80;;;6.20;99.90;;;;;;5220149;28;20092;-75
2022/01/17 13:27:42;;;;;;;1.23;1.23;;;6.20;99.90;;;;;;5224647;28;20049;-75
2022/01/17 13:30:17;;;;;;;13.88;1.85;;;6.10;99.90;;;;;;5204388;28;20235;-75
2022/01/17 13:32:51;;;;;;;0.70;0.70;;;6.10;99.90;;;;;;5197573;28;20040;-75
2022/01/17 13:35:25;;;;;;;0.73;0.73;;;6.00;99.90;;;;;;5203619;28;20098;-76
2022/01/17 13:38:18;;;;;;;0.75;0.75;;;6.00;99.90;;;;;;5218732;28;20044;-75
2022/01/17 13:41:02;;;;;;;0.52;0.52;;;6.00;99.90;;;;;;5233351;28;20044;-76
2022/01/17 13:43:35;;;;;;;0.80;0.80;;;6.00;99.90;;;;;;5217563;28;20036;-74
2022/01/17 13:46:14;;;;;;;1.65;1.55;;;5.90;99.90;;;;;;5218038;28;20281;-75
2022/01/17 13:48:46;;;;;;;0.73;0.73;;;5.90;99.90;;;;;;5201873;28;20033;-74
2022/01/17 13:51:27;;;;;;;0.60;0.60;;;5.90;99.90;;;;;;5219706;28;20043;-74
2022/01/17 13:53:58;;;;;;;1.60;1.10;;;5.80;99.90;;;;;;5218343;28;20040;-75
2022/01/17 13:56:37;;;;;;;0.50;0.50;;;5.80;99.90;;;;;;5234552;28;20036;-75
2022/01/17 13:59:13;;;;;;;0.40;0.40;;;5.90;99.90;;;;;;5217159;28;20036;-75
2022/01/17 14:01:45;;;;;;;0.63;0.63;;;5.90;99.90;;;;;;5239014;28;20070;-76
2022/01/17 14:04:32;;;;;;;0.70;0.70;;;6.00;99.90;;;;;;5217205;28;20064;-75
2022/01/17 14:07:29;;;;;;;0.82;0.82;;;6.00;99.90;;;;;;5236251;28;20035;-74
2022/01/17 14:10:02;;;;;;;0.50;0.50;;;6.00;99.90;;;;;;5215358;28;20546;-74
2022/01/17 14:12:35;;;;;;;0.82;0.82;;;6.00;99.90;;;;;;5213996;28;20047;-75